Time;durP1;ratioP1;P1;durP2;ratioP2;P2;SDS_P1;SDS_P2;PMS_P1;PMS_P2;Temp;Humidity;BMP_temperature;BMP_pressure;BME280_temperature;BME280_humidity;BME280_pressure;Samples;Min_cycle;Max_cycle;Signal;HPM_P1;HPM_P2
2023/03/20 00:02:08;;;;;;;14.32;12.02;;;;;;;9.78;100.00;101006.66;7396527;19;20031;-69
2023/03/20 00:04:39;;;;;;;16.08;13.20;;;;;;;9.76;100.00;101000.56;7394685;19;20474;-68
2023/03/20 00:07:11;;;;;;;14.27;11.60;;;;;;;9.79;100.00;100999.66;7396373;19;20074;-69
2023/03/20 00:09:39;;;;;;;13.07;11.50;;;;;;;9.79;100.00;101002.28;7396917;19;20024;-69
2023/03/20 00:12:08;;;;;;;12.95;11.57;;;;;;;9.80;100.00;101001.41;7396118;19;20549;-68
2023/03/20 00:14:37;;;;;;;15.85;12.27;;;;;;;9.80;100.00;101004.00;7394361;19;20478;-69
2023/03/20 00:17:11;;;;;;;16.20;10.98;;;;;;;9.80;100.00;101009.25;7395086;19;20519;-68
2023/03/20 00:19:42;;;;;;;13.05;11.75;;;;;;;9.80;100.00;101006.63;7396169;19;20418;-69
2023/03/20 00:22:11;;;;;;;15.35;11.20;;;;;;;9.81;100.00;101007.50;7395792;19;20073;-69
2023/03/20 00:24:39;;;;;;;13.52;11.88;;;;;;;9.77;100.00;101002.31;7394453;19;20036;-71
2023/03/20 00:27:08;;;;;;;11.88;10.13;;;;;;;9.79;100.00;101004.91;7396020;19;20010;-69
2023/03/20 00:29:36;;;;;;;13.88;11.50;;;;;;;9.77;100.00;101007.53;7395537;19;20031;-69
2023/03/20 00:32:05;;;;;;;11.85;10.18;;;;;;;9.77;100.00;101006.69;7395939;19;20081;-69
2023/03/20 00:34:42;;;;;;;12.30;10.90;;;;;;;9.76;100.00;101002.34;7393403;19;20533;-69
2023/03/20 00:37:12;;;;;;;15.25;11.75;;;;;;;9.76;100.00;101002.34;7393404;19;20070;-69
2023/03/20 00:39:41;;;;;;;12.43;10.88;;;;;;;9.72;100.00;101004.13;7393779;19;20010;-69
2023/03/20 00:42:21;;;;;;;14.07;10.75;;;;;;;9.71;100.00;101010.25;7395243;19;20078;-69
2023/03/20 00:44:52;;;;;;;12.05;10.75;;;;;;;9.71;100.00;101004.16;7393752;19;20078;-69
2023/03/20 00:47:23;;;;;;;12.40;11.02;;;;;;;9.69;100.00;101005.91;7395645;19;20119;-69
2023/03/20 00:49:56;;;;;;;14.77;11.82;;;;;;;9.69;100.00;101013.78;7395431;19;20019;-69
2023/03/20 00:52:26;;;;;;;14.73;11.10;;;;;;;9.67;100.00;101000.72;7394059;19;20015;-69
2023/03/20 00:54:54;;;;;;;14.52;12.00;;;;;;;9.65;100.00;101002.47;7395271;19;20426;-69
2023/03/20 00:57:28;;;;;;;15.30;11.55;;;;;;;9.62;100.00;101002.53;7393762;19;20398;-72
2023/03/20 01:00:00;;;;;;;15.13;11.17;;;;;;;9.59;100.00;100999.94;7395619;19;20081;-71
2023/03/20 01:02:31;;;;;;;12.48;9.85;;;;;;;9.62;100.00;100997.28;7394559;19;20541;-72
2023/03/20 01:05:04;;;;;;;14.45;10.88;;;;;;;9.60;100.00;101005.19;7395102;19;20372;-72
2023/03/20 01:07:32;;;;;;;12.23;10.55;;;;;;;9.59;100.00;101007.78;7393633;19;20014;-72
2023/03/20 01:10:01;;;;;;;14.98;11.05;;;;;;;9.57;100.00;101014.81;7394466;19;20027;-72
2023/03/20 01:12:30;;;;;;;12.00;10.70;;;;;;;9.54;100.00;101013.13;7394596;19;20019;-73
2023/03/20 01:15:00;;;;;;;11.70;10.30;;;;;;;9.51;100.00;101009.66;7394244;19;20381;-72
2023/03/20 01:17:30;;;;;;;12.25;9.82;;;;;;;9.49;100.00;101009.69;7393627;19;20364;-72
2023/03/20 01:19:58;;;;;;;12.80;9.90;;;;;;;9.47;100.00;101003.59;7394295;19;20018;-72
2023/03/20 01:22:29;;;;;;;11.05;9.95;;;;;;;9.44;100.00;101009.75;7394546;19;20027;-73
2023/03/20 01:24:58;;;;;;;12.07;9.48;;;;;;;9.40;100.00;101008.06;7394988;19;20029;-72
2023/03/20 01:27:26;;;;;;;10.15;9.10;;;;;;;9.39;99.96;101013.28;7393944;19;20431;-72
2023/03/20 01:29:55;;;;;;;10.40;9.23;;;;;;;9.37;100.00;101012.47;7393983;19;20078;-72
2023/03/20 01:32:23;;;;;;;11.38;9.57;;;;;;;9.35;100.00;101014.22;7394140;19;20022;-72
2023/03/20 01:34:53;;;;;;;11.68;9.45;;;;;;;9.33;100.00;101016.00;7391768;19;20466;-72
2023/03/20 01:37:26;;;;;;;11.13;9.50;;;;;;;9.29;100.00;101021.25;7392843;19;20010;-72
2023/03/20 01:39:58;;;;;;;11.00;9.65;;;;;;;9.24;100.00;101009.13;7394525;19;20078;-72
2023/03/20 01:42:26;;;;;;;12.82;9.68;;;;;;;9.24;100.00;101025.69;7392547;19;20082;-72
2023/03/20 01:44:55;;;;;;;13.13;10.23;;;;;;;9.21;100.00;101017.88;7393934;19;20070;-71
2023/03/20 01:47:26;;;;;;;9.98;8.98;;;;;;;9.17;100.00;101010.06;7393450;19;20518;-72
2023/03/20 01:50:25;;;;;;;11.27;9.80;;;;;;;9.15;100.00;101010.09;7398716;19;20021;-72
2023/03/20 01:52:59;;;;;;;11.43;9.48;;;;;;;9.11;100.00;101018.84;7401015;19;20019;-72
2023/03/20 01:55:32;;;;;;;12.20;10.68;;;;;;;9.08;100.00;101019.75;7401580;19;20023;-72
2023/03/20 01:58:05;;;;;;;11.23;10.10;;;;;;;9.06;100.00;101010.19;7399735;19;20023;-72
2023/03/20 02:00:35;;;;;;;13.23;10.40;;;;;;;9.03;100.00;101012.84;7400694;19;20547;-72
2023/03/20 02:03:05;;;;;;;11.45;9.48;;;;;;;8.99;100.00;101006.78;7399683;19;20478;-73
2023/03/20 02:05:34;;;;;;;10.60;9.20;;;;;;;8.95;100.00;101012.94;7401313;19;20070;-73
2023/03/20 02:08:18;;;;;;;11.35;9.82;;;;;;;8.91;100.00;101012.09;7400249;19;20109;-73
2023/03/20 02:10:50;;;;;;;10.82;9.70;;;;;;;8.88;100.00;101009.50;7401109;19;20101;-73
2023/03/20 02:13:19;;;;;;;12.18;9.57;;;;;;;8.85;100.00;101014.78;7399918;19;20545;-68
2023/03/20 02:16:00;;;;;;;12.85;10.13;;;;;;;8.81;100.00;101013.09;7400167;19;20525;-68
2023/03/20 02:18:29;;;;;;;10.82;9.20;;;;;;;8.79;100.00;101017.44;7398704;19;20085;-68
2023/03/20 02:21:33;;;;;;;12.68;9.70;;;;;;;8.77;100.00;101009.63;7399928;19;20422;-68
2023/03/20 02:24:35;;;;;;;10.95;9.40;;;;;;;8.75;100.00;101013.13;7398224;19;20410;-68
2023/03/20 02:27:15;;;;;;;12.07;9.30;;;;;;;8.73;100.00;101005.31;7396745;19;20014;-68
2023/03/20 02:30:13;;;;;;;10.93;9.38;;;;;;;8.72;100.00;101013.16;7400394;19;20027;-68
2023/03/20 02:33:32;;;;;;;10.93;9.82;;;;;;;8.71;100.00;101014.91;7399501;19;20039;-69
2023/03/20 02:36:27;;;;;;;11.20;10.07;;;;;;;8.70;100.00;101014.94;7396985;19;20031;-70
2023/03/20 02:39:27;;;;;;;10.65;8.90;;;;;;;8.68;100.00;101017.56;7397906;19;20085;-68
2023/03/20 02:42:02;;;;;;;10.02;9.02;;;;;;;8.68;100.00;101011.47;7399013;19;20411;-68
2023/03/20 02:44:40;;;;;;;10.15;9.07;;;;;;;8.68;100.00;101014.06;7397436;19;20014;-68
2023/03/20 02:47:14;;;;;;;12.00;9.52;;;;;;;8.67;100.00;101014.94;7399825;19;20031;-68
2023/03/20 02:49:57;;;;;;;11.65;9.77;;;;;;;8.66;100.00;101015.81;7399691;19;20039;-68
2023/03/20 02:52:35;;;;;;;9.93;8.80;;;;;;;8.63;100.00;101012.38;7397284;19;20022;-68
2023/03/20 02:55:16;;;;;;;11.80;9.80;;;;;;;8.63;100.00;101007.16;7399473;19;20070;-67
2023/03/20 02:57:52;;;;;;;11.85;9.77;;;;;;;8.61;100.00;101008.91;7398174;19;20445;-68
2023/03/20 03:00:29;;;;;;;10.32;9.25;;;;;;;8.59;100.00;101008.06;7395260;19;20070;-68
2023/03/20 03:03:06;;;;;;;12.05;9.65;;;;;;;8.59;100.00;101004.56;7398028;19;20018;-68
2023/03/20 03:05:42;;;;;;;11.73;10.00;;;;;;;8.57;100.00;100996.75;7399115;19;20028;-68
2023/03/20 03:08:14;;;;;;;12.48;10.10;;;;;;;8.54;100.00;100996.75;7399197;19;20031;-68
2023/03/20 03:10:50;;;;;;;12.23;9.48;;;;;;;8.52;100.00;100995.03;7396545;19;20018;-68
2023/03/20 03:13:24;;;;;;;11.13;9.93;;;;;;;8.50;100.00;101002.91;7397773;19;20023;-68
2023/03/20 03:15:55;;;;;;;13.15;10.00;;;;;;;8.45;100.00;101002.94;7397906;19;20506;-68
2023/03/20 03:18:27;;;;;;;13.57;10.18;;;;;;;8.43;100.00;101001.22;7397221;19;20077;-68
2023/03/20 03:20:59;;;;;;;12.40;10.13;;;;;;;8.41;100.00;101005.56;7398480;19;20026;-69
2023/03/20 03:23:31;;;;;;;11.27;9.95;;;;;;;8.38;100.00;101011.69;7397426;19;20030;-68
2023/03/20 03:26:05;;;;;;;11.23;10.02;;;;;;;8.35;100.00;101016.06;7398351;19;20027;-68
2023/03/20 03:28:40;;;;;;;13.20;10.82;;;;;;;8.32;100.00;101015.22;7398276;19;20022;-68
2023/03/20 03:31:13;;;;;;;12.25;10.43;;;;;;;8.29;100.00;101023.09;7395433;19;20014;-68
2023/03/20 03:33:42;;;;;;;13.35;11.15;;;;;;;8.25;100.00;101013.53;7395555;19;20014;-68
2023/03/20 03:36:18;;;;;;;13.82;11.05;;;;;;;8.21;100.00;101022.28;7397098;19;20017;-68
2023/03/20 03:38:57;;;;;;;15.20;11.25;;;;;;;8.18;100.00;101018.84;7396444;19;20074;-68
2023/03/20 03:41:34;;;;;;;12.25;10.35;;;;;;;8.16;100.00;101016.22;7396063;19;20043;-68
2023/03/20 03:44:13;;;;;;;12.80;11.35;;;;;;;8.15;100.00;101020.59;7396305;19;20014;-68
2023/03/20 03:46:47;;;;;;;11.70;10.45;;;;;;;8.14;100.00;101031.06;7397768;19;20011;-68
2023/03/20 03:49:20;;;;;;;15.05;10.95;;;;;;;8.13;100.00;101030.16;7397766;19;20082;-68
2023/03/20 03:51:52;;;;;;;13.77;11.33;;;;;;;8.13;100.00;101029.31;7395265;19;20018;-68
2023/03/20 03:54:24;;;;;;;12.27;10.52;;;;;;;8.12;100.00;101030.19;7395663;19;20268;-68
2023/03/20 03:56:57;;;;;;;13.65;11.05;;;;;;;8.12;100.00;101033.66;7397102;19;20074;-68
2023/03/20 03:59:31;;;;;;;13.57;11.07;;;;;;;8.13;100.00;101034.53;7395637;19;20015;-69
2023/03/20 04:02:02;;;;;;;15.05;11.77;;;;;;;8.13;100.00;101035.41;7397393;19;20015;-69
2023/03/20 04:04:32;;;;;;;14.70;12.15;;;;;;;8.14;100.00;101033.66;7394984;19;20018;-69
2023/03/20 04:07:01;;;;;;;12.93;11.07;;;;;;;8.15;100.00;101032.75;7394744;19;20078;-67
2023/03/20 04:09:30;;;;;;;12.40;11.07;;;;;;;8.15;100.00;101036.25;7396667;19;20018;-69
2023/03/20 04:12:01;;;;;;;12.35;10.88;;;;;;;8.17;100.00;101045.84;7396094;19;20014;-66
2023/03/20 04:14:29;;;;;;;13.90;11.25;;;;;;;8.18;100.00;101050.19;7394937;19;20088;-68
2023/03/20 04:16:58;;;;;;;14.65;11.95;;;;;;;8.18;100.00;101045.81;7396479;19;20014;-68
2023/03/20 04:19:26;;;;;;;14.10;11.85;;;;;;;8.20;100.00;101045.81;7394386;19;20505;-68
2023/03/20 04:21:55;;;;;;;14.25;10.73;;;;;;;8.20;100.00;101043.19;7396282;19;20082;-68
2023/03/20 04:24:23;;;;;;;12.40;11.02;;;;;;;8.22;100.00;101057.13;7394424;19;20014;-67
2023/03/20 04:26:52;;;;;;;12.20;10.73;;;;;;;8.22;100.00;101050.16;7396111;19;20078;-68
2023/03/20 04:29:23;;;;;;;12.20;10.50;;;;;;;8.24;100.00;101043.16;7395520;19;20015;-68
2023/03/20 04:31:51;;;;;;;15.35;11.00;;;;;;;8.25;100.00;101049.25;7396337;19;20035;-68
2023/03/20 04:34:20;;;;;;;12.40;10.88;;;;;;;8.27;100.00;101052.75;7393823;19;20010;-68
2023/03/20 04:36:50;;;;;;;14.18;11.02;;;;;;;8.28;100.00;101052.72;7395130;19;20077;-68
2023/03/20 04:39:18;;;;;;;11.75;10.55;;;;;;;8.29;100.00;101062.31;7393546;19;20014;-68
2023/03/20 04:41:47;;;;;;;16.95;10.95;;;;;;;8.31;100.00;101060.56;7395431;19;20022;-68
2023/03/20 04:44:15;;;;;;;12.10;10.73;;;;;;;8.33;100.00;101060.53;7394065;19;20431;-68
2023/03/20 04:46:46;;;;;;;12.85;10.98;;;;;;;8.34;100.00;101057.06;7394931;19;20081;-68
2023/03/20 04:49:15;;;;;;;14.13;10.15;;;;;;;8.36;100.00;101059.66;7395150;19;20093;-69
2023/03/20 04:51:43;;;;;;;15.20;11.35;;;;;;;8.36;100.00;101047.44;7395474;19;20031;-69
2023/03/20 04:54:12;;;;;;;14.07;10.77;;;;;;;8.39;100.00;101062.22;7393426;19;20163;-68
2023/03/20 04:56:40;;;;;;;14.90;11.20;;;;;;;8.41;100.00;101063.94;7395276;19;20086;-69
2023/03/20 04:59:09;;;;;;;13.20;10.70;;;;;;;8.44;100.00;101068.28;7393427;19;20070;-68
2023/03/20 05:01:37;;;;;;;15.63;12.50;;;;;;;8.46;100.00;101064.81;7394872;19;20035;-68
2023/03/20 05:04:08;;;;;;;15.07;11.70;;;;;;;8.49;100.00;101066.53;7393499;19;20022;-68
2023/03/20 05:06:37;;;;;;;15.05;11.65;;;;;;;8.50;100.00;101070.88;7395294;19;20014;-68
2023/03/20 05:09:06;;;;;;;15.48;12.02;;;;;;;8.51;100.00;101067.41;7394846;19;20018;-68
2023/03/20 05:11:34;;;;;;;15.25;11.63;;;;;;;8.53;100.00;101070.00;7393504;19;20094;-68
2023/03/20 05:14:03;;;;;;;17.80;12.20;;;;;;;8.53;100.00;101065.66;7394196;19;20019;-68
2023/03/20 05:16:32;;;;;;;17.17;11.63;;;;;;;8.54;100.00;101062.13;7394225;19;20506;-68
2023/03/20 05:19:07;;;;;;;16.80;10.93;;;;;;;8.56;100.00;101070.84;7392931;19;20078;-68
2023/03/20 05:21:38;;;;;;;17.00;12.00;;;;;;;8.57;100.00;101067.34;7394546;19;20014;-68
2023/03/20 05:24:08;;;;;;;14.77;11.60;;;;;;;8.59;100.00;101069.94;7394619;19;20018;-68
2023/03/20 05:26:36;;;;;;;13.57;11.15;;;;;;;8.59;100.00;101069.94;7401887;19;20019;-68
2023/03/20 05:29:05;;;;;;;15.00;11.10;;;;;;;8.60;100.00;101075.16;7401424;19;20101;-68
2023/03/20 05:31:33;;;;;;;13.63;11.27;;;;;;;8.61;100.00;101076.03;7401201;19;20550;-68
2023/03/20 05:34:02;;;;;;;17.70;12.63;;;;;;;8.62;100.00;101075.16;7398917;19;20066;-68
2023/03/20 05:36:30;;;;;;;14.98;11.20;;;;;;;8.62;100.00;101070.78;7400809;19;20018;-68
2023/03/20 05:39:01;;;;;;;14.35;11.27;;;;;;;8.65;100.00;101080.38;7399568;19;20019;-68
2023/03/20 05:41:30;;;;;;;14.60;11.20;;;;;;;8.65;100.00;101067.28;7401707;19;20027;-68
2023/03/20 05:43:58;;;;;;;14.45;11.15;;;;;;;8.67;100.00;101077.72;7398961;19;20545;-68
2023/03/20 05:46:27;;;;;;;16.60;11.82;;;;;;;8.66;100.00;101070.75;7400713;19;20067;-68
2023/03/20 05:48:55;;;;;;;18.40;13.20;;;;;;;8.68;100.00;101072.50;7401054;19;20014;-68
2023/03/20 05:51:24;;;;;;;15.73;11.00;;;;;;;8.70;100.00;101072.47;7398134;19;20078;-68
2023/03/20 05:53:53;;;;;;;14.68;11.90;;;;;;;8.72;100.00;101073.31;7398132;19;20026;-69
2023/03/20 05:56:24;;;;;;;16.70;12.15;;;;;;;8.73;100.00;101077.69;7400434;19;20018;-68
2023/03/20 05:58:53;;;;;;;13.63;11.80;;;;;;;8.75;100.00;101083.78;7399556;19;20478;-68
2023/03/20 06:01:22;;;;;;;190.75;106.22;;;;;;;8.77;100.00;101079.38;7400139;19;20018;-68
2023/03/20 06:03:51;;;;;;;106.57;61.65;;;;;;;8.80;100.00;101080.22;7398590;19;20022;-68
2023/03/20 06:06:19;;;;;;;30.15;21.35;;;;;;;8.81;100.00;101081.09;7399082;19;20077;-68
2023/03/20 06:08:48;;;;;;;26.83;19.45;;;;;;;8.85;100.00;101090.66;7399968;19;20515;-68
2023/03/20 06:11:25;;;;;;;18.15;13.13;;;;;;;8.86;100.00;101089.78;7400348;19;20026;-68
2023/03/20 06:13:54;;;;;;;18.30;13.63;;;;;;;8.87;100.00;101086.28;7398210;19;20543;-68
2023/03/20 06:16:23;;;;;;;16.83;13.23;;;;;;;8.88;100.00;101088.00;7399519;19;20381;-68
2023/03/20 06:18:51;;;;;;;16.65;12.90;;;;;;;8.89;100.00;101094.13;7398653;19;20098;-67
2023/03/20 06:21:20;;;;;;;20.23;13.13;;;;;;;8.88;100.00;101100.22;7399553;19;20018;-68
2023/03/20 06:23:48;;;;;;;16.92;12.75;;;;;;;8.88;100.00;101093.22;7397041;19;20010;-68
2023/03/20 06:26:17;;;;;;;21.90;14.57;;;;;;;8.86;100.00;101105.47;7399064;19;20026;-69
2023/03/20 06:28:48;;;;;;;18.40;13.27;;;;;;;8.86;100.00;101121.19;7398743;19;20046;-69
2023/03/20 06:31:16;;;;;;;21.88;14.15;;;;;;;8.85;100.00;101111.59;7399319;19;20523;-69
2023/03/20 06:33:47;;;;;;;24.20;15.15;;;;;;;8.84;100.00;101122.94;7397864;19;20078;-69
2023/03/20 06:36:16;;;;;;;22.13;14.02;;;;;;;8.84;100.00;101115.06;7393511;19;20086;-68
2023/03/20 06:38:44;;;;;;;20.50;14.43;;;;;;;8.85;100.00;101116.81;7398707;19;20427;-69
2023/03/20 06:41:13;;;;;;;20.95;14.38;;;;;;;8.86;100.00;101120.28;7396080;19;20493;-69
2023/03/20 06:43:41;;;;;;;21.50;15.32;;;;;;;8.86;100.00;101121.19;7397288;19;20082;-68
2023/03/20 06:46:12;;;;;;;26.15;15.00;;;;;;;8.89;100.00;101121.13;7398746;19;20025;-67
2023/03/20 06:48:41;;;;;;;22.33;15.57;;;;;;;8.90;100.00;101125.50;7399516;19;20018;-68
2023/03/20 06:51:10;;;;;;;23.98;15.90;;;;;;;8.91;100.00;101121.13;7398810;19;20086;-66
2023/03/20 06:53:40;;;;;;;26.65;17.33;;;;;;;8.89;100.00;101118.53;7397146;19;20359;-68
2023/03/20 06:56:10;;;;;;;28.90;19.40;;;;;;;8.83;100.00;101129.03;7397268;19;20022;-68
2023/03/20 06:58:39;;;;;;;30.90;21.27;;;;;;;8.77;100.00;101124.75;7398234;19;20015;-69
2023/03/20 07:01:15;;;;;;;31.80;20.38;;;;;;;8.74;100.00;101139.59;7398530;19;20094;-69
2023/03/20 07:03:44;;;;;;;33.20;21.45;;;;;;;8.69;100.00;101142.22;7396716;19;20023;-68
2023/03/20 07:06:13;;;;;;;34.58;23.40;;;;;;;8.66;100.00;101136.16;7398289;19;20027;-68
2023/03/20 07:08:41;;;;;;;33.65;21.88;;;;;;;8.62;100.00;101141.41;7398432;19;20019;-68
2023/03/20 07:11:10;;;;;;;36.40;23.77;;;;;;;8.58;100.00;101149.28;7396388;19;20035;-68
2023/03/20 07:13:39;;;;;;;36.17;22.23;;;;;;;8.53;100.00;101154.56;7397204;19;20030;-69
2023/03/20 07:16:09;;;;;;;38.97;23.85;;;;;;;8.50;100.00;101153.72;7395847;19;20403;-68
2023/03/20 07:18:40;;;;;;;40.60;23.92;;;;;;;8.47;100.00;101159.84;7397886;19;20093;-68
2023/03/20 07:21:10;;;;;;;42.45;25.25;;;;;;;8.44;100.00;101160.69;7396876;19;20082;-68
2023/03/20 07:23:38;;;;;;;41.90;25.38;;;;;;;8.42;100.00;101167.66;7396607;19;20018;-69
2023/03/20 07:26:07;;;;;;;44.45;26.70;;;;;;;8.41;100.00;101165.91;7397331;19;20074;-68
2023/03/20 07:28:35;;;;;;;41.75;25.98;;;;;;;8.37;100.00;101172.06;7395133;19;20019;-68
2023/03/20 07:31:04;;;;;;;50.58;29.02;;;;;;;8.35;100.00;101168.56;7394823;19;20082;-69
2023/03/20 07:33:33;;;;;;;50.17;29.52;;;;;;;8.32;100.00;101164.22;7395163;19;20039;-69
2023/03/20 07:36:05;;;;;;;51.90;29.88;;;;;;;8.32;100.00;101156.38;7398117;19;20042;-69
2023/03/20 07:38:33;;;;;;;52.75;30.10;;;;;;;8.30;100.00;101173.84;7396284;19;20570;-70
2023/03/20 07:41:02;;;;;;;58.58;31.42;;;;;;;8.28;100.00;101167.75;7397211;19;20073;-69
2023/03/20 07:43:30;;;;;;;54.85;30.80;;;;;;;8.29;100.00;101174.72;7395249;19;20082;-69
2023/03/20 07:45:59;;;;;;;52.22;31.55;;;;;;;8.28;100.00;101175.59;7397029;19;20079;-70
2023/03/20 07:48:27;;;;;;;55.63;30.88;;;;;;;8.28;100.00;101178.19;7395808;19;20474;-68
2023/03/20 07:50:56;;;;;;;51.97;31.02;;;;;;;8.30;100.00;101188.63;7394829;19;20018;-69
2023/03/20 07:53:27;;;;;;;53.88;32.13;;;;;;;8.30;100.00;101186.91;7396271;19;20094;-69
2023/03/20 07:55:55;;;;;;;53.80;31.15;;;;;;;8.32;100.00;101189.50;7397404;19;20018;-69
2023/03/20 07:58:24;;;;;;;51.75;29.95;;;;;;;8.31;100.00;101188.66;7396505;19;20565;-69
2023/03/20 08:00:52;;;;;;;50.88;29.60;;;;;;;8.34;100.00;101194.72;7394408;19;20015;-69
2023/03/20 08:03:21;;;;;;;46.67;27.98;;;;;;;8.36;100.00;101199.06;7395758;19;20058;-70
2023/03/20 08:05:49;;;;;;;47.38;27.65;;;;;;;8.35;100.00;101197.31;7396493;19;20078;-68
2023/03/20 08:08:18;;;;;;;52.25;29.52;;;;;;;8.32;100.00;101185.13;7396368;19;20031;-69
2023/03/20 08:10:49;;;;;;;42.17;26.40;;;;;;;8.39;100.00;101193.84;7393957;19;20411;-69
2023/03/20 08:13:17;;;;;;;45.72;27.02;;;;;;;8.44;100.00;101193.78;7395897;19;20029;-70
2023/03/20 08:15:48;;;;;;;53.33;31.48;;;;;;;8.46;100.00;101199.94;7395407;19;20086;-68
2023/03/20 08:18:16;;;;;;;42.22;26.77;;;;;;;8.48;100.00;101198.19;7395996;19;20035;-67
2023/03/20 08:20:45;;;;;;;38.60;23.35;;;;;;;8.48;100.00;101213.88;7393457;19;20500;-67
2023/03/20 08:23:13;;;;;;;40.35;25.05;;;;;;;8.44;99.81;101217.31;7394464;19;20015;-66
2023/03/20 08:25:42;;;;;;;38.67;24.58;;;;;;;8.42;100.00;101216.50;7393612;19;20082;-67
2023/03/20 08:28:13;;;;;;;38.63;24.33;;;;;;;8.39;99.66;101220.00;7396807;19;20086;-66
2023/03/20 08:30:41;;;;;;;40.80;25.08;;;;;;;8.40;100.00;101213.00;7394511;19;20022;-67
2023/03/20 08:33:10;;;;;;;40.38;25.80;;;;;;;8.41;100.00;101217.34;7394581;19;20150;-65
2023/03/20 08:35:45;;;;;;;39.17;23.13;;;;;;;8.44;100.00;101219.94;7392931;19;20534;-66
2023/03/20 08:38:15;;;;;;;38.67;24.52;;;;;;;8.48;100.00;101233.03;7393323;19;20106;-66
2023/03/20 08:40:44;;;;;;;39.47;23.30;;;;;;;8.49;100.00;101236.50;7393742;19;20208;-69
2023/03/20 08:43:15;;;;;;;37.47;23.27;;;;;;;8.55;100.00;101230.38;7393192;19;20015;-68
2023/03/20 08:45:44;;;;;;;41.03;23.83;;;;;;;8.56;100.00;101235.59;7393057;19;20014;-68
2023/03/20 08:48:12;;;;;;;40.63;23.95;;;;;;;8.53;100.00;101235.63;7394682;19;20019;-68
2023/03/20 08:50:41;;;;;;;43.38;23.48;;;;;;;8.47;99.92;101233.06;7395044;19;20026;-69
2023/03/20 08:53:10;;;;;;;41.20;23.45;;;;;;;8.45;100.00;101237.38;7393228;19;20078;-68
2023/03/20 08:55:38;;;;;;;40.17;23.50;;;;;;;8.48;100.00;101234.78;7394881;19;20022;-69
2023/03/20 08:58:07;;;;;;;46.95;24.85;;;;;;;8.53;100.00;101237.38;7393893;19;20070;-68
2023/03/20 09:00:38;;;;;;;41.97;23.38;;;;;;;8.61;100.00;101233.84;7392244;19;20018;-68
2023/03/20 09:03:06;;;;;;;39.67;22.20;;;;;;;8.68;98.05;101241.66;7394218;19;20045;-68
2023/03/20 09:05:38;;;;;;;40.85;23.33;;;;;;;8.75;99.62;101230.28;7394171;19;20090;-67
2023/03/20 09:08:07;;;;;;;39.45;23.02;;;;;;;8.83;100.00;101231.06;7393234;19;20070;-68
2023/03/20 09:10:36;;;;;;;38.88;21.25;;;;;;;8.94;100.00;101239.72;7392088;19;20090;-68
2023/03/20 09:13:04;;;;;;;34.90;21.48;;;;;;;9.05;100.00;101226.56;7392517;19;20018;-69
2023/03/20 09:15:33;;;;;;;34.90;21.13;;;;;;;9.13;98.33;101231.75;7394367;19;20055;-67
2023/03/20 09:18:04;;;;;;;36.35;22.20;;;;;;;9.18;98.16;101235.19;7392389;19;20503;-69
2023/03/20 09:20:32;;;;;;;36.00;20.70;;;;;;;9.24;96.92;101235.16;7392783;19;20040;-71
2023/03/20 09:23:01;;;;;;;40.47;22.20;;;;;;;9.28;97.23;101239.47;7393806;19;20019;-68
2023/03/20 09:25:29;;;;;;;32.83;20.15;;;;;;;9.36;97.91;101230.69;7391902;19;20082;-69
2023/03/20 09:27:58;;;;;;;34.80;20.20;;;;;;;9.41;95.90;101244.59;7393910;19;20513;-68
2023/03/20 09:30:27;;;;;;;32.30;19.50;;;;;;;9.45;97.18;101243.69;7393956;19;20023;-69
2023/03/20 09:32:55;;;;;;;34.28;19.30;;;;;;;9.45;95.22;101233.22;7393555;19;20022;-67
2023/03/20 09:35:26;;;;;;;33.88;17.52;;;;;;;9.49;97.14;101239.28;7391729;19;20427;-70
2023/03/20 09:37:55;;;;;;;32.50;19.13;;;;;;;9.54;96.46;101238.38;7394281;19;20101;-68
2023/03/20 09:40:28;;;;;;;30.73;18.98;;;;;;;9.55;95.02;101239.25;7391372;19;20078;-68
2023/03/20 09:43:06;;;;;;;35.10;20.38;;;;;;;9.55;92.82;101247.09;7392534;19;20031;-68
2023/03/20 09:45:46;;;;;;;29.60;17.77;;;;;;;9.56;95.60;101235.75;7393219;19;20015;-67
2023/03/20 09:48:20;;;;;;;30.92;18.05;;;;;;;9.61;94.05;101237.41;7397011;19;20032;-67
2023/03/20 09:50:57;;;;;;;;;;;;;;;9.66;89.51;101247.00;7401077;19;20474;-72
2023/03/20 09:53:33;;;;;;;29.35;17.52;;;;;;;9.69;89.75;101252.19;7392126;19;20370;-68
2023/03/20 09:56:02;;;;;;;29.08;17.38;;;;;;;9.72;91.91;101244.31;7393572;19;20101;-67
2023/03/20 09:58:35;;;;;;;30.40;17.02;;;;;;;9.76;92.20;101246.03;7393239;19;20090;-68
2023/03/20 10:01:07;;;;;;;30.00;18.10;;;;;;;9.81;93.23;101238.97;7390855;19;20506;-68
2023/03/20 10:03:44;;;;;;;27.70;17.52;;;;;;;9.88;91.74;101237.16;7392469;19;20094;-68
2023/03/20 10:06:18;;;;;;;29.35;17.08;;;;;;;9.94;93.58;101234.47;7393361;19;20010;-70
2023/03/20 10:08:47;;;;;;;28.40;17.42;;;;;;;10.02;93.06;101237.00;7393917;19;20031;-69
2023/03/20 10:11:36;;;;;;;28.85;17.23;;;;;;;10.11;92.97;101231.66;7398453;19;20031;-69
2023/03/20 10:14:18;;;;;;;28.58;17.42;;;;;;;10.23;92.92;101230.63;7398562;19;20035;-64
2023/03/20 10:17:00;;;;;;;26.98;15.88;;;;;;;10.35;92.38;101226.97;7400664;19;20052;-66
2023/03/20 10:19:31;;;;;;;25.13;15.52;;;;;;;10.45;90.33;101236.53;7397592;19;20015;-65
2023/03/20 10:22:08;;;;;;;27.05;15.18;;;;;;;10.57;92.17;101236.31;7400587;19;20011;-64
2023/03/20 10:24:41;;;;;;;23.63;14.65;;;;;;;10.67;92.36;101230.97;7397329;19;20538;-66
2023/03/20 10:27:19;;;;;;;28.55;14.40;;;;;;;10.73;91.03;101231.75;7397714;19;20078;-65
2023/03/20 10:29:56;;;;;;;22.75;14.20;;;;;;;10.77;91.02;101227.31;7400003;19;20026;-66
2023/03/20 10:32:31;;;;;;;26.08;14.65;;;;;;;10.80;88.57;101232.50;7399188;19;20015;-66
2023/03/20 10:35:14;;;;;;;24.35;14.77;;;;;;;10.78;88.45;101225.53;7397962;19;20410;-64
2023/03/20 10:37:58;;;;;;;24.27;14.43;;;;;;;10.81;84.99;101226.38;7398672;19;20070;-68
2023/03/20 10:40:31;;;;;;;25.95;14.93;;;;;;;10.83;87.62;101208.84;7396109;19;20559;-68
2023/03/20 10:43:03;;;;;;;24.10;13.77;;;;;;;10.87;88.62;101223.66;7397250;19;20198;-67
2023/03/20 10:45:41;;;;;;;23.10;13.07;;;;;;;10.85;82.88;101222.81;7399316;19;20075;-67
2023/03/20 10:48:18;;;;;;;21.35;12.55;;;;;;;10.88;86.30;101217.53;7399430;19;20415;-67
2023/03/20 10:50:50;;;;;;;21.50;12.43;;;;;;;10.93;85.84;101230.56;7398992;19;20026;-67
2023/03/20 10:53:33;;;;;;;23.40;13.52;;;;;;;10.91;77.75;101240.22;7397797;19;20039;-65
2023/03/20 10:56:07;;;;;;;23.67;14.07;;;;;;;10.96;83.63;101227.03;7399114;19;20018;-67
2023/03/20 10:58:38;;;;;;;;;;;;;;;10.95;77.23;101233.19;7398998;19;20490;-67
2023/03/20 11:01:07;;;;;;;22.80;13.15;;;;;;;10.96;82.41;101232.28;7395845;19;20363;-66
2023/03/20 11:03:39;;;;;;;21.33;12.93;;;;;;;10.95;84.50;101233.19;7397267;19;20082;-67
2023/03/20 11:06:14;;;;;;;25.92;14.10;;;;;;;10.98;84.63;101225.25;7396309;19;20014;-67
2023/03/20 11:08:50;;;;;;;24.25;15.35;;;;;;;10.99;83.10;101222.59;7397721;19;20384;-67
2023/03/20 11:11:24;;;;;;;25.85;15.10;;;;;;;10.98;80.61;101222.63;7397718;19;20014;-66
2023/03/20 11:13:53;;;;;;;22.15;13.75;;;;;;;10.97;82.03;101234.88;7395802;19;20043;-67
2023/03/20 11:16:24;;;;;;;24.40;14.27;;;;;;;10.96;83.07;101233.16;7394869;19;20090;-67
2023/03/20 11:18:56;;;;;;;25.23;14.35;;;;;;;10.92;78.35;101227.06;7396889;19;20514;-67
2023/03/20 11:21:28;;;;;;;19.55;12.63;;;;;;;10.90;82.75;101225.38;7394215;19;20011;-70
2023/03/20 11:23:59;;;;;;;23.00;12.85;;;;;;;10.87;80.05;101235.94;7396013;19;20424;-70
2023/03/20 11:26:37;;;;;;;22.35;12.35;;;;;;;10.78;80.59;101213.31;7397404;19;20022;-70
2023/03/20 11:29:10;;;;;;;21.35;12.30;;;;;;;10.83;83.39;101221.97;7398214;19;20015;-70
2023/03/20 11:31:42;;;;;;;20.60;12.60;;;;;;;10.87;83.19;101226.28;7397125;19;20482;-69
2023/03/20 11:34:25;;;;;;;22.20;13.35;;;;;;;10.91;82.63;101224.47;7394921;19;20021;-69